Time;durP1;ratioP1;P1;durP2;ratioP2;P2;SDS_P1;SDS_P2;PMS_P1;PMS_P2;Temp;Humidity;BMP_temperature;BMP_pressure;BME280_temperature;BME280_humidity;BME280_pressure;Samples;Min_cycle;Max_cycle;Signal;HPM_P1;HPM_P2
2023/03/22 00:02:01;;;;;;;14.50;8.73;;;6.90;99.90;;;;;;4979542;28;20182;-85
2023/03/22 00:04:26;;;;;;;24.87;10.27;;;6.80;99.90;;;;;;4979315;28;20178;-85
2023/03/22 00:06:52;;;;;;;24.10;10.57;;;6.90;99.90;;;;;;4995699;28;20635;-86
2023/03/22 00:09:18;;;;;;;23.67;10.13;;;6.90;99.90;;;;;;4996708;28;20178;-85
2023/03/22 00:11:45;;;;;;;18.17;9.20;;;6.90;99.90;;;;;;4978963;28;20193;-84
2023/03/22 00:14:10;;;;;;;25.40;9.80;;;6.90;99.90;;;;;;4995451;28;20261;-84
2023/03/22 00:16:36;;;;;;;20.90;9.40;;;6.80;99.90;;;;;;4995080;28;20264;-84
2023/03/22 00:19:01;;;;;;;31.73;11.80;;;6.80;99.90;;;;;;4979346;28;20189;-86
2023/03/22 00:21:27;;;;;;;39.30;13.67;;;6.70;99.90;;;;;;4995005;28;20320;-84
2023/03/22 00:23:53;;;;;;;55.53;17.93;;;6.70;99.90;;;;;;4979102;28;20185;-84
2023/03/22 00:26:18;;;;;;;44.40;16.57;;;6.70;99.90;;;;;;4978641;28;20182;-84
2023/03/22 00:28:44;;;;;;;35.43;12.73;;;6.60;99.90;;;;;;4978841;28;20186;-83
2023/03/22 00:31:10;;;;;;;28.10;11.50;;;6.50;99.90;;;;;;4978813;28;20204;-84
2023/03/22 00:33:36;;;;;;;22.23;12.00;;;6.40;99.90;;;;;;4995114;28;20209;-85
2023/03/22 00:36:09;;;;;;;26.90;10.70;;;6.40;99.90;;;;;;4962844;28;20178;-85
2023/03/22 00:38:36;;;;;;;24.13;11.80;;;6.30;99.90;;;;;;4996577;28;20209;-85
2023/03/22 00:41:10;;;;;;;24.33;11.50;;;6.20;99.90;;;;;;4995521;28;20679;-84
2023/03/22 00:43:36;;;;;;;29.60;13.03;;;6.20;99.90;;;;;;4996908;28;20654;-84
2023/03/22 00:46:02;;;;;;;34.60;12.87;;;6.10;99.90;;;;;;4997105;28;20192;-85
2023/03/22 00:48:30;;;;;;;26.70;11.47;;;6.00;99.90;;;;;;4980080;28;20217;-85
2023/03/22 00:50:56;;;;;;;26.60;12.47;;;5.90;99.90;;;;;;4995379;28;20589;-85
2023/03/22 00:53:22;;;;;;;20.70;10.43;;;5.90;99.90;;;;;;4979060;28;20182;-85
2023/03/22 00:55:48;;;;;;;29.97;12.03;;;5.80;99.90;;;;;;4995983;28;20193;-85
2023/03/22 00:58:14;;;;;;;24.77;10.90;;;5.70;99.90;;;;;;4994956;28;20186;-86
2023/03/22 01:00:39;;;;;;;30.00;11.73;;;5.70;99.90;;;;;;4995863;28;20210;-85
2023/03/22 01:03:05;;;;;;;38.03;14.17;;;5.60;99.90;;;;;;4994882;28;20276;-86
2023/03/22 01:05:32;;;;;;;40.53;15.37;;;5.50;99.90;;;;;;4978968;28;20205;-85
2023/03/22 01:08:07;;;;;;;43.30;15.97;;;5.50;99.90;;;;;;4994265;28;20235;-85
2023/03/22 01:10:39;;;;;;;24.37;12.63;;;5.40;99.90;;;;;;4996387;28;20168;-85
2023/03/22 01:13:06;;;;;;;31.17;12.53;;;5.40;99.90;;;;;;4978278;28;20604;-85
2023/03/22 01:15:33;;;;;;;42.33;12.90;;;5.30;99.90;;;;;;4995295;28;20186;-85
2023/03/22 01:17:59;;;;;;;37.90;11.73;;;5.20;99.90;;;;;;4995690;28;20256;-84
2023/03/22 01:20:25;;;;;;;42.70;14.17;;;5.10;99.90;;;;;;4993873;28;20268;-84
2023/03/22 01:22:51;;;;;;;38.60;15.03;;;5.10;99.90;;;;;;4994952;28;20226;-84
2023/03/22 01:25:17;;;;;;;51.77;17.53;;;5.00;99.90;;;;;;4993659;28;20194;-85
2023/03/22 01:27:43;;;;;;;52.47;18.40;;;5.10;99.90;;;;;;4978275;28;20193;-85
2023/03/22 01:30:10;;;;;;;37.77;15.33;;;5.10;99.90;;;;;;4994252;28;20182;-84
2023/03/22 01:32:37;;;;;;;42.97;14.17;;;5.10;99.90;;;;;;4977576;28;20272;-85
2023/03/22 01:35:04;;;;;;;28.33;14.17;;;5.10;99.90;;;;;;4993714;28;20185;-85
2023/03/22 01:37:31;;;;;;;31.03;13.60;;;5.10;99.90;;;;;;4993495;28;20228;-85
2023/03/22 01:39:57;;;;;;;36.00;13.97;;;5.10;99.90;;;;;;4993629;28;20213;-85
2023/03/22 01:42:24;;;;;;;36.90;15.13;;;5.10;99.90;;;;;;4977816;28;20182;-85
2023/03/22 01:45:28;;;;;;;49.90;17.23;;;5.00;99.90;;;;;;4993602;28;20178;-85
2023/03/22 01:48:01;;;;;;;62.43;21.13;;;5.00;99.90;;;;;;4956860;28;20265;-85
2023/03/22 01:50:28;;;;;;;18.97;10.90;;;4.90;99.90;;;;;;4956077;28;20568;-86
2023/03/22 01:52:56;;;;;;;33.13;11.60;;;4.80;99.90;;;;;;4974351;28;20197;-85
2023/03/22 01:55:24;;;;;;;49.30;16.97;;;4.70;99.90;;;;;;4976795;28;20194;-85
2023/03/22 01:57:52;;;;;;;34.73;15.37;;;4.60;99.90;;;;;;4977747;28;20201;-86
2023/03/22 02:00:19;;;;;;;31.40;13.83;;;4.60;99.90;;;;;;4994617;28;20210;-84
2023/03/22 02:02:48;;;;;;;29.03;12.93;;;4.60;99.90;;;;;;4977129;28;20653;-84
2023/03/22 02:05:14;;;;;;;50.73;14.17;;;4.50;99.90;;;;;;4994680;28;20180;-84
2023/03/22 02:07:41;;;;;;;32.30;14.60;;;4.50;99.90;;;;;;4993435;28;20209;-86
2023/03/22 02:10:20;;;;;;;20.80;9.87;;;4.50;99.90;;;;;;4977644;28;20555;-85
2023/03/22 02:13:07;;;;;;;18.27;8.77;;;4.30;99.90;;;;;;4993879;28;20174;-85
2023/03/22 02:16:01;;;;;;;19.33;9.03;;;4.20;99.90;;;;;;4992953;28;20185;-85
2023/03/22 02:18:38;;;;;;;24.70;9.67;;;4.00;99.90;;;;;;4992902;28;20186;-85
2023/03/22 02:21:27;;;;;;;26.07;9.00;;;3.90;99.90;;;;;;4992688;28;20296;-85
2023/03/22 02:24:31;;;;;;;19.97;10.80;;;3.90;99.90;;;;;;4992954;28;20185;-85
2023/03/22 02:27:19;;;;;;;22.27;12.30;;;3.90;99.90;;;;;;4992652;28;20192;-85
2023/03/22 02:29:53;;;;;;;48.43;14.57;;;4.00;99.90;;;;;;4993765;28;20649;-85
2023/03/22 02:32:30;;;;;;;27.67;12.07;;;4.00;99.90;;;;;;4992912;28;20185;-85
2023/03/22 02:34:56;;;;;;;18.83;12.23;;;4.00;99.90;;;;;;4992947;28;20277;-85
2023/03/22 02:37:34;;;;;;;30.20;11.37;;;3.90;99.90;;;;;;4992895;28;20605;-86
2023/03/22 02:40:37;;;;;;;20.33;10.63;;;3.90;99.90;;;;;;4993228;28;20652;-86
2023/03/22 02:43:24;;;;;;;28.03;11.73;;;3.90;99.90;;;;;;4993625;28;20213;-86
2023/03/22 02:46:08;;;;;;;17.37;10.27;;;4.00;99.90;;;;;;4992620;28;20196;-86
2023/03/22 02:48:49;;;;;;;22.63;8.60;;;3.80;99.90;;;;;;4992649;28;20197;-85
2023/03/22 02:51:25;;;;;;;22.47;8.53;;;3.80;99.90;;;;;;4992452;28;20226;-85
2023/03/22 02:53:54;;;;;;;14.77;8.10;;;3.60;99.90;;;;;;4993863;28;20170;-85
2023/03/22 02:56:49;;;;;;;17.63;9.47;;;3.50;99.90;;;;;;4992828;28;20186;-85
2023/03/22 02:59:18;;;;;;;19.37;9.97;;;3.60;99.90;;;;;;4990348;28;20198;-85
2023/03/22 03:01:51;;;;;;;18.90;8.97;;;3.60;99.90;;;;;;4993260;28;20209;-84
2023/03/22 03:04:20;;;;;;;32.47;13.67;;;3.50;99.90;;;;;;4997906;28;20174;-85
2023/03/22 03:06:50;;;;;;;20.33;9.00;;;3.50;99.90;;;;;;4997895;28;20196;-85
2023/03/22 03:09:18;;;;;;;20.80;8.87;;;3.50;99.90;;;;;;4996373;28;20701;-85
2023/03/22 03:11:49;;;;;;;16.67;8.10;;;3.50;99.90;;;;;;4996237;28;20661;-85
2023/03/22 03:14:27;;;;;;;20.43;8.93;;;3.60;99.90;;;;;;4996710;28;20185;-85
2023/03/22 03:17:26;;;;;;;12.83;7.83;;;3.60;99.90;;;;;;4998818;28;20240;-85
2023/03/22 03:20:10;;;;;;;21.80;7.63;;;3.50;99.90;;;;;;4998713;28;20387;-86
2023/03/22 03:22:41;;;;;;;11.40;6.80;;;3.40;99.90;;;;;;5015522;28;20259;-86
2023/03/22 03:25:28;;;;;;;14.97;7.50;;;3.40;99.90;;;;;;5001751;28;20166;-85
2023/03/22 03:28:02;;;;;;;15.87;7.60;;;3.40;99.90;;;;;;4999362;28;20205;-85
2023/03/22 03:30:37;;;;;;;29.07;12.83;;;3.50;99.90;;;;;;4999062;28;20320;-85
2023/03/22 03:33:12;;;;;;;45.37;15.27;;;3.40;99.90;;;;;;4997020;28;20204;-86
2023/03/22 03:35:45;;;;;;;17.07;9.13;;;3.40;99.90;;;;;;4998157;28;20169;-86
2023/03/22 03:38:24;;;;;;;12.43;7.30;;;3.30;99.90;;;;;;4997410;28;20174;-85
2023/03/22 03:40:57;;;;;;;12.63;6.97;;;3.10;99.90;;;;;;4996410;28;20260;-85
2023/03/22 03:43:24;;;;;;;14.70;8.63;;;2.90;99.90;;;;;;5009423;28;20177;-84
2023/03/22 03:45:51;;;;;;;16.30;7.83;;;2.90;99.90;;;;;;5013401;28;20182;-86
2023/03/22 03:48:29;;;;;;;15.73;8.50;;;2.80;99.90;;;;;;5017009;28;20192;-85
2023/03/22 03:50:56;;;;;;;18.93;7.27;;;2.60;99.90;;;;;;4997461;28;20177;-86
2023/03/22 03:53:22;;;;;;;17.40;8.30;;;2.60;99.90;;;;;;4981170;28;20261;-85
2023/03/22 03:55:48;;;;;;;12.27;6.60;;;2.60;99.90;;;;;;5016275;28;20209;-85
2023/03/22 03:58:15;;;;;;;12.90;7.47;;;2.40;99.90;;;;;;5001329;28;20277;-84
2023/03/22 04:00:41;;;;;;;12.87;7.17;;;2.40;99.90;;;;;;4986074;28;20214;-87
2023/03/22 04:03:07;;;;;;;12.83;7.57;;;2.40;99.90;;;;;;5010979;28;20193;-86
2023/03/22 04:05:33;;;;;;;13.90;5.70;;;2.30;99.90;;;;;;4995804;28;20534;-86
2023/03/22 04:07:59;;;;;;;10.10;5.83;;;2.30;99.90;;;;;;4979306;28;20834;-86
2023/03/22 04:10:25;;;;;;;20.13;8.57;;;2.30;99.90;;;;;;4995365;28;20654;-87
2023/03/22 04:12:50;;;;;;;12.70;6.50;;;2.40;99.90;;;;;;4995896;28;20185;-86
2023/03/22 04:15:16;;;;;;;17.07;6.23;;;2.40;99.90;;;;;;4994795;28;20186;-86
2023/03/22 04:17:42;;;;;;;16.70;6.73;;;2.50;99.90;;;;;;4962873;28;20272;-87
2023/03/22 04:20:09;;;;;;;9.77;6.33;;;2.50;99.90;;;;;;4979250;28;20233;-86
2023/03/22 04:22:39;;;;;;;10.83;6.10;;;2.40;99.90;;;;;;4995333;28;20243;-85
2023/03/22 04:25:11;;;;;;;18.93;11.97;;;2.30;99.90;;;;;;4996402;28;20193;-86
2023/03/22 04:27:41;;;;;;;13.67;8.70;;;2.20;99.90;;;;;;4997218;28;20185;-86
2023/03/22 04:30:09;;;;;;;15.77;7.90;;;2.30;99.90;;;;;;4996416;28;20268;-86
2023/03/22 04:32:36;;;;;;;14.27;7.33;;;2.30;99.90;;;;;;4996436;28;20185;-86
2023/03/22 04:35:04;;;;;;;13.33;7.20;;;2.40;99.90;;;;;;4978319;28;20233;-86
2023/03/22 04:37:32;;;;;;;11.17;5.67;;;2.30;99.90;;;;;;4994841;28;20207;-86
2023/03/22 04:39:58;;;;;;;11.13;6.23;;;2.30;99.90;;;;;;4978558;28;20180;-86
2023/03/22 04:42:24;;;;;;;11.63;6.30;;;2.30;99.90;;;;;;4995781;28;20189;-86
2023/03/22 04:44:50;;;;;;;13.30;6.57;;;2.30;99.90;;;;;;4978435;28;20279;-85
2023/03/22 04:47:16;;;;;;;9.67;7.40;;;2.20;99.90;;;;;;4962701;28;20217;-86
2023/03/22 04:49:43;;;;;;;10.37;6.43;;;2.20;99.90;;;;;;4962532;28;20184;-86
2023/03/22 04:52:09;;;;;;;11.90;6.60;;;2.20;99.90;;;;;;4978178;28;20192;-86
2023/03/22 04:54:35;;;;;;;11.43;5.63;;;2.20;99.90;;;;;;4994472;28;20365;-86
2023/03/22 04:57:01;;;;;;;9.00;4.83;;;2.30;99.90;;;;;;4979102;28;20185;-86
2023/03/22 04:59:26;;;;;;;11.00;4.63;;;2.30;99.90;;;;;;4980467;28;20186;-86
2023/03/22 05:01:52;;;;;;;12.87;5.40;;;2.40;99.90;;;;;;4979473;28;20213;-85
2023/03/22 05:04:19;;;;;;;10.10;5.70;;;2.50;99.90;;;;;;4994874;28;20530;-85
2023/03/22 05:06:45;;;;;;;11.03;6.00;;;2.60;99.90;;;;;;4994292;28;20283;-85
2023/03/22 05:09:11;;;;;;;11.17;6.33;;;2.70;99.90;;;;;;4994173;28;20213;-85
2023/03/22 05:11:39;;;;;;;10.27;6.97;;;2.60;99.90;;;;;;4994706;28;20186;-85
2023/03/22 05:14:06;;;;;;;11.10;5.90;;;2.70;99.90;;;;;;4994195;28;20623;-84
2023/03/22 05:16:32;;;;;;;8.93;5.53;;;;;;;;;;4977361;28;20643;-86
2023/03/22 05:19:01;;;;;;;12.27;6.37;;;2.80;99.90;;;;;;4993790;28;20184;-87
2023/03/22 05:21:28;;;;;;;7.63;5.27;;;2.80;99.90;;;;;;4994346;28;20238;-85
2023/03/22 05:23:55;;;;;;;23.50;6.97;;;2.90;99.90;;;;;;4993798;28;20190;-86
2023/03/22 05:26:23;;;;;;;16.33;7.50;;;3.00;99.90;;;;;;4994799;28;20221;-85
2023/03/22 05:28:50;;;;;;;15.23;7.90;;;3.10;99.90;;;;;;4977867;28;20185;-86
2023/03/22 05:31:20;;;;;;;19.10;6.97;;;3.10;99.90;;;;;;4993515;28;20288;-86
2023/03/22 05:33:47;;;;;;;18.03;7.67;;;3.20;99.90;;;;;;4993469;28;20190;-85
2023/03/22 05:36:12;;;;;;;14.03;7.60;;;3.30;99.90;;;;;;4992702;28;20615;-84
2023/03/22 05:38:40;;;;;;;6.93;5.20;;;3.10;99.90;;;;;;4992795;28;20292;-85
2023/03/22 05:41:06;;;;;;;9.50;5.43;;;3.00;99.90;;;;;;4994309;28;20209;-86
2023/03/22 05:43:31;;;;;;;11.57;6.83;;;3.00;99.90;;;;;;4961313;28;20189;-87
2023/03/22 05:45:57;;;;;;;18.80;7.67;;;2.90;99.90;;;;;;4976811;28;20276;-85
2023/03/22 05:48:23;;;;;;;10.37;6.47;;;;;;;;;;4977413;28;20590;-87
2023/03/22 05:50:49;;;;;;;11.27;7.80;;;;;;;;;;4992796;28;20192;-87
2023/03/22 05:53:15;;;;;;;14.10;7.03;;;;;;;;;;5001312;28;20175;-89
2023/03/22 05:55:41;;;;;;;8.77;5.60;;;;;;;;;;4992438;28;20225;-88
2023/03/22 05:58:10;;;;;;;15.30;6.30;;;;;;;;;;5000582;28;20193;-90
2023/03/22 06:00:36;;;;;;;13.57;6.30;;;;;;;;;;4997846;28;20353;-86
2023/03/22 06:03:04;;;;;;;10.23;5.80;;;3.40;99.90;;;;;;5000121;28;20197;-86
2023/03/22 06:05:31;;;;;;;13.10;5.20;;;3.50;99.90;;;;;;4995582;28;20240;-87
2023/03/22 06:07:58;;;;;;;14.63;6.73;;;;;;;;;;4994190;28;20174;-87
2023/03/22 06:10:25;;;;;;;19.17;7.70;;;4.80;99.90;;;;;;4993087;28;20287;-89
2023/03/22 06:12:51;;;;;;;9.10;6.77;;;3.60;99.90;;;;;;4977873;28;20273;-88
2023/03/22 06:15:17;;;;;;;10.13;5.77;;;3.50;99.90;;;;;;4993834;28;20232;-86
2023/03/22 06:17:43;;;;;;;9.10;5.23;;;3.50;99.90;;;;;;4960668;28;20186;-87
2023/03/22 06:20:11;;;;;;;12.17;6.57;;;3.60;99.90;;;;;;4975824;28;20738;-87
2023/03/22 06:22:38;;;;;;;9.60;5.90;;;;;;;;;;4993179;28;20233;-87
2023/03/22 06:25:05;;;;;;;8.93;5.77;;;3.60;99.90;;;;;;4990918;28;20185;-87
2023/03/22 06:27:31;;;;;;;11.43;6.97;;;3.60;99.90;;;;;;4997108;28;20620;-87
2023/03/22 06:29:59;;;;;;;9.93;5.80;;;;;;;;;;4966184;28;20282;-89
2023/03/22 06:32:25;;;;;;;15.70;6.83;;;3.50;99.90;;;;;;4977133;28;20276;-88
2023/03/22 06:34:52;;;;;;;18.60;7.77;;;3.50;99.90;;;;;;4992221;28;20178;-88
2023/03/22 06:37:18;;;;;;;13.53;7.90;;;3.60;99.90;;;;;;4979839;28;20181;-87
2023/03/22 06:39:44;;;;;;;18.00;8.97;;;4.10;99.90;;;;;;4966148;28;20646;-88
2023/03/22 06:42:10;;;;;;;18.27;8.10;;;3.90;99.90;;;;;;4982461;28;20594;-87
2023/03/22 06:44:35;;;;;;;17.83;9.20;;;4.00;99.90;;;;;;4966703;28;20705;-89
2023/03/22 06:47:02;;;;;;;18.27;8.50;;;4.10;99.90;;;;;;4998798;28;20189;-87
2023/03/22 06:49:28;;;;;;;37.37;10.00;;;4.30;99.90;;;;;;4985061;28;20301;-88
2023/03/22 06:51:54;;;;;;;13.83;7.50;;;;;;;;;;4967001;28;20665;-88
2023/03/22 06:54:20;;;;;;;18.67;7.90;;;4.30;99.90;;;;;;4999132;28;20214;-88
2023/03/22 06:56:45;;;;;;;13.93;7.73;;;4.30;99.90;;;;;;4998803;28;20189;-86
2023/03/22 06:59:11;;;;;;;22.97;8.10;;;;;;;;;;4981966;28;20189;-87
2023/03/22 07:01:37;;;;;;;13.10;7.13;;;;;;;;;;5000414;28;20202;-85
2023/03/22 07:04:03;;;;;;;16.90;6.77;;;4.70;99.90;;;;;;4982491;28;20196;-87
2023/03/22 07:06:31;;;;;;;21.73;7.20;;;;;;;;;;4966616;28;20185;-87
2023/03/22 07:08:57;;;;;;;15.07;7.90;;;4.80;99.90;;;;;;4999669;28;20627;-88
2023/03/22 07:11:24;;;;;;;19.73;8.30;;;;;;;;;;4998460;28;20276;-89
2023/03/22 07:13:53;;;;;;;12.20;6.87;;;5.00;99.90;;;;;;5000118;28;20209;-88
2023/03/22 07:16:20;;;;;;;22.83;7.00;;;5.30;99.90;;;;;;4998337;28;20703;-88
2023/03/22 07:18:47;;;;;;;13.43;7.50;;;;;;;;;;4982265;28;20193;-87
2023/03/22 07:21:13;;;;;;;13.57;7.43;;;5.40;99.90;;;;;;4997907;28;20252;-86
2023/03/22 07:23:39;;;;;;;18.43;8.90;;;;;;;;;;4982152;28;20320;-86
2023/03/22 07:26:05;;;;;;;15.63;9.33;;;5.60;99.90;;;;;;4982154;28;20181;-86
2023/03/22 07:28:31;;;;;;;15.80;8.10;;;5.70;99.90;;;;;;4998227;28;20315;-86
2023/03/22 07:31:06;;;;;;;18.17;7.47;;;5.90;99.90;;;;;;4998262;28;20540;-88
2023/03/22 07:33:32;;;;;;;22.37;9.07;;;6.00;99.90;;;;;;4998110;28;20178;-87
2023/03/22 07:35:57;;;;;;;26.57;10.00;;;6.20;99.90;;;;;;4966096;28;20173;-86
2023/03/22 07:38:23;;;;;;;23.37;9.20;;;6.30;99.90;;;;;;4981896;28;20174;-87
2023/03/22 07:40:53;;;;;;;19.53;8.83;;;6.50;99.90;;;;;;4982959;28;20209;-85
2023/03/22 07:43:19;;;;;;;15.40;8.33;;;6.60;99.90;;;;;;4998438;28;20189;-88
2023/03/22 07:45:45;;;;;;;27.17;9.00;;;;;;;;;;5000087;28;20178;-87
2023/03/22 07:48:12;;;;;;;17.67;7.83;;;;;;;;;;4980056;28;20220;-87
2023/03/22 07:50:38;;;;;;;17.23;8.30;;;;;;;;;;4995283;28;20190;-88
2023/03/22 07:53:04;;;;;;;20.70;9.27;;;;;;;;;;4979047;28;20241;-86
2023/03/22 07:55:30;;;;;;;18.73;9.07;;;;;;;;;;4978847;28;20190;-86
2023/03/22 07:57:56;;;;;;;18.00;9.27;;;;;;;;;;4994862;28;20638;-87
2023/03/22 08:00:22;;;;;;;25.40;11.37;;;;;;;;;;4994533;28;20205;-87
2023/03/22 08:02:48;;;;;;;26.13;11.83;;;;;;;;;;4995491;28;20281;-87
2023/03/22 08:05:14;;;;;;;22.93;10.90;;;7.60;99.90;;;;;;4995334;28;20281;-86
2023/03/22 08:07:41;;;;;;;15.37;8.87;;;7.80;99.90;;;;;;4979205;28;20269;-87
2023/03/22 08:10:07;;;;;;;22.57;9.87;;;7.90;99.90;;;;;;4996025;28;20192;-87
2023/03/22 08:12:33;;;;;;;18.90;9.43;;;8.10;99.90;;;;;;4995582;28;20554;-87
2023/03/22 08:14:59;;;;;;;22.20;10.40;;;8.20;99.90;;;;;;4962851;28;20182;-87
2023/03/22 08:17:25;;;;;;;14.97;8.87;;;8.30;99.90;;;;;;4978717;28;20762;-88
2023/03/22 08:19:53;;;;;;;16.40;8.20;;;;;;;;;;4994590;28;20177;-87
2023/03/22 08:22:22;;;;;;;24.03;10.30;;;8.60;99.90;;;;;;4994457;28;20236;-87
2023/03/22 08:24:48;;;;;;;22.83;9.63;;;8.90;99.90;;;;;;4994548;28;20611;-87
2023/03/22 08:27:14;;;;;;;17.37;7.37;;;;;;;;;;4979118;28;20214;-88
2023/03/22 08:29:42;;;;;;;18.50;7.67;;;9.20;99.90;;;;;;4995163;28;20178;-88
2023/03/22 08:32:08;;;;;;;21.70;10.85;;;9.40;99.90;;;;;;4996149;28;20256;-88
2023/03/22 08:34:38;;;;;;;23.23;8.93;;;9.60;99.90;;;;;;4997417;28;20651;-87
2023/03/22 08:37:05;;;;;;;25.05;9.75;;;9.60;99.90;;;;;;4995744;28;20718;-87
2023/03/22 08:39:31;;;;;;;21.65;8.93;;;9.50;99.90;;;;;;4979758;28;20186;-86
2023/03/22 08:41:56;;;;;;;28.10;9.88;;;9.60;99.90;;;;;;4994991;28;20217;-86
2023/03/22 08:44:22;;;;;;;20.90;9.02;;;9.60;99.90;;;;;;4977962;28;20398;-87
2023/03/22 08:46:48;;;;;;;23.13;9.13;;;7.90;99.90;;;;;;4977968;28;20634;-87
2023/03/22 08:49:15;;;;;;;23.35;10.10;;;9.80;99.90;;;;;;4978119;28;20184;-87
2023/03/22 08:51:41;;;;;;;21.60;9.48;;;9.90;99.90;;;;;;5010167;28;20186;-86
2023/03/22 08:54:07;;;;;;;27.25;10.00;;;10.00;99.90;;;;;;4994434;28;20654;-86
2023/03/22 08:56:36;;;;;;;24.20;10.32;;;10.30;99.90;;;;;;4995424;28;20256;-85
2023/03/22 08:59:03;;;;;;;28.02;9.50;;;10.50;99.90;;;;;;4993864;28;20301;-86
2023/03/22 09:01:29;;;;;;;23.45;9.10;;;10.50;99.90;;;;;;4977088;28;20217;-86
2023/03/22 09:03:56;;;;;;;21.73;8.98;;;10.30;99.90;;;;;;4993573;28;20181;-86
2023/03/22 09:06:22;;;;;;;17.10;9.50;;;10.10;99.90;;;;;;4977999;28;20277;-85
2023/03/22 09:08:50;;;;;;;20.08;9.50;;;9.90;99.90;;;;;;4962071;28;20193;-86
2023/03/22 09:11:18;;;;;;;19.75;9.05;;;10.00;99.90;;;;;;4978075;28;20328;-86
2023/03/22 09:13:44;;;;;;;17.48;7.97;;;10.20;99.90;;;;;;4994350;28;20182;-86
2023/03/22 09:16:10;;;;;;;27.15;10.57;;;10.30;99.90;;;;;;4994426;28;20581;-86
2023/03/22 09:18:37;;;;;;;23.48;9.27;;;10.20;99.90;;;;;;4980145;28;20229;-86
2023/03/22 09:21:06;;;;;;;16.95;8.32;;;10.30;99.90;;;;;;4996271;28;20670;-86
2023/03/22 09:23:36;;;;;;;15.52;7.53;;;10.40;99.90;;;;;;4994547;28;20185;-86
2023/03/22 09:26:07;;;;;;;22.55;8.93;;;10.40;99.90;;;;;;4995633;28;20534;-85
2023/03/22 09:28:34;;;;;;;14.20;7.07;;;10.60;99.90;;;;;;4996965;28;20174;-86
2023/03/22 09:31:06;;;;;;;22.52;7.97;;;10.90;99.90;;;;;;4979724;28;20647;-86
2023/03/22 09:33:34;;;;;;;19.80;8.07;;;11.30;99.90;;;;;;4996665;28;20202;-87
2023/03/22 09:36:00;;;;;;;16.60;8.10;;;11.50;99.90;;;;;;4979978;28;20602;-86
2023/03/22 09:38:26;;;;;;;18.05;6.20;;;11.50;99.90;;;;;;4995538;28;20189;-86
2023/03/22 09:41:01;;;;;;;18.67;7.95;;;11.50;99.90;;;;;;5008401;28;20205;-85
2023/03/22 09:43:41;;;;;;;17.65;8.27;;;11.60;99.90;;;;;;5008585;28;20189;-87
2023/03/22 09:46:15;;;;;;;14.50;7.53;;;11.60;99.90;;;;;;5009152;28;20178;-86
2023/03/22 09:48:45;;;;;;;23.90;8.23;;;11.60;99.90;;;;;;4998387;28;20180;-85
2023/03/22 09:51:27;;;;;;;21.40;8.82;;;11.70;99.90;;;;;;4979415;28;20192;-85
2023/03/22 09:53:53;;;;;;;18.77;7.70;;;11.80;99.90;;;;;;5011340;28;20181;-86
2023/03/22 09:56:25;;;;;;;16.38;8.23;;;12.10;99.90;;;;;;5012768;28;20229;-87
2023/03/22 09:59:27;;;;;;;14.85;6.10;;;12.10;99.90;;;;;;5012786;28;20178;-86
2023/03/22 10:02:08;;;;;;;14.43;7.10;;;11.60;99.90;;;;;;5010917;28;20216;-87
2023/03/22 10:05:11;;;;;;;16.35;7.25;;;11.30;99.90;;;;;;5010237;28;20178;-87
2023/03/22 10:07:42;;;;;;;12.93;6.85;;;11.60;99.90;;;;;;4994499;28;20186;-87
2023/03/22 10:10:17;;;;;;;12.98;5.53;;;11.70;99.90;;;;;;4994315;28;20178;-86
2023/03/22 10:13:25;;;;;;;12.02;5.88;;;11.70;99.90;;;;;;4991907;28;20180;-85
2023/03/22 10:16:07;;;;;;;13.55;6.13;;;11.90;99.90;;;;;;4993626;28;20635;-84
2023/03/22 10:18:40;;;;;;;13.52;5.72;;;12.10;99.90;;;;;;4992654;28;20192;-85
2023/03/22 10:21:08;;;;;;;14.68;6.65;;;12.20;99.90;;;;;;4993792;28;20385;-86
2023/03/22 10:23:46;;;;;;;15.23;6.15;;;12.30;99.90;;;;;;4992904;28;20204;-85
2023/03/22 10:26:28;;;;;;;13.48;6.00;;;12.00;99.90;;;;;;4991820;28;20181;-85
2023/03/22 10:29:17;;;;;;;10.75;5.78;;;12.00;99.90;;;;;;4992693;28;20213;-84
2023/03/22 10:31:44;;;;;;;11.75;5.28;;;12.10;99.90;;;;;;4992154;28;20186;-84
2023/03/22 10:34:32;;;;;;;12.55;6.22;;;12.30;99.90;;;;;;4993121;28;20661;-85
2023/03/22 10:37:02;;;;;;;10.20;5.47;;;12.40;99.90;;;;;;4992344;28;20260;-85
2023/03/22 10:39:53;;;;;;;12.05;5.90;;;12.60;99.90;;;;;;4991999;28;20237;-84
2023/03/22 10:42:22;;;;;;;12.48;6.55;;;12.70;99.90;;;;;;4990822;28;20218;-83
2023/03/22 10:45:01;;;;;;;15.15;6.28;;;12.80;99.90;;;;;;4991797;28;20182;-85
2023/03/22 10:47:39;;;;;;;13.25;5.72;;;12.90;99.90;;;;;;4992079;28;20174;-85
2023/03/22 10:50:12;;;;;;;12.18;6.05;;;13.10;99.90;;;;;;4993500;28;20176;-85
2023/03/22 10:52:48;;;;;;;12.02;5.50;;;13.20;99.90;;;;;;4991982;28;20173;-85
2023/03/22 10:55:15;;;;;;;11.82;6.20;;;13.00;99.90;;;;;;4991744;28;20182;-84
2023/03/22 10:57:44;;;;;;;11.80;5.60;;;13.00;99.90;;;;;;4991669;28;20224;-85
2023/03/22 11:00:16;;;;;;;9.75;4.80;;;13.20;99.90;;;;;;4992940;28;20241;-84
2023/03/22 11:02:57;;;;;;;12.85;5.55;;;13.20;99.90;;;;;;4993076;28;20197;-83
2023/03/22 11:05:26;;;;;;;10.13;4.55;;;13.20;99.90;;;;;;4992241;28;20233;-84
2023/03/22 11:07:52;;;;;;;12.73;5.25;;;13.30;99.90;;;;;;4993102;28;20224;-84
2023/03/22 11:10:32;;;;;;;13.25;5.72;;;13.10;99.90;;;;;;4975552;28;20194;-85
2023/03/22 11:13:06;;;;;;;8.93;4.50;;;13.00;99.90;;;;;;4994035;28;20552;-83
2023/03/22 11:15:35;;;;;;;12.60;5.65;;;13.20;99.90;;;;;;4993749;28;20476;-83
2023/03/22 11:18:13;;;;;;;10.35;5.97;;;13.30;99.90;;;;;;4993495;28;20178;-84
2023/03/22 11:20:41;;;;;;;11.15;6.00;;;13.30;99.90;;;;;;4993221;28;20197;-85
2023/03/22 11:23:12;;;;;;;12.50;5.75;;;13.20;99.90;;;;;;4996015;28;20154;-83
2023/03/22 11:25:45;;;;;;;12.57;5.78;;;13.00;99.90;;;;;;4995802;28;20177;-83
2023/03/22 11:28:19;;;;;;;9.68;5.15;;;13.20;99.90;;;;;;4996516;28;20174;-84
2023/03/22 11:31:06;;;;;;;20.38;5.72;;;13.40;99.90;;;;;;4995724;28;20188;-84
2023/03/22 11:33:33;;;;;;;11.73;4.35;;;13.30;99.90;;;;;;4997451;28;20174;-85
2023/03/22 11:36:02;;;;;;;9.55;4.82;;;13.40;99.90;;;;;;4995910;28;20192;-84
2023/03/22 11:38:28;;;;;;;8.13;4.65;;;13.30;99.90;;;;;;4997185;28;20249;-85
2023/03/22 11:40:58;;;;;;;9.25;5.05;;;13.20;99.90;;;;;;4996828;28;20297;-84
2023/03/22 11:43:38;;;;;;;11.85;6.00;;;13.10;99.90;;;;;;4996464;28;20181;-85
2023/03/22 11:46:06;;;;;;;11.60;5.10;;;13.00;99.90;;;;;;4997529;28;20158;-84
2023/03/22 11:48:34;;;;;;;11.30;6.32;;;12.80;99.90;;;;;;4997288;28;20200;-86
2023/03/22 11:51:07;;;;;;;10.57;5.18;;;12.80;99.90;;;;;;4996234;28;20189;-84
2023/03/22 11:53:40;;;;;;;9.90;5.25;;;12.90;99.90;;;;;;4995986;28;20233;-84
2023/03/22 11:56:09;;;;;;;12.43;5.50;;;13.00;99.90;;;;;;4995530;28;20182;-83
2023/03/22 11:58:38;;;;;;;11.23;5.50;;;13.20;99.90;;;;;;4996252;28;20178;-83
2023/03/22 12:01:05;;;;;;;16.30;5.40;;;13.20;99.90;;;;;;4995645;28;20252;-83
2023/03/22 12:03:39;;;;;;;8.75;4.60;;;13.30;99.90;;;;;;4964895;28;20190;-84
2023/03/22 12:06:14;;;;;;;12.90;5.05;;;13.30;99.90;;;;;;4996730;28;20193;-84
2023/03/22 12:08:45;;;;;;;9.68;5.03;;;12.90;99.90;;;;;;4995895;28;20253;-82
2023/03/22 12:11:16;;;;;;;10.68;4.60;;;13.00;99.90;;;;;;4996107;28;20192;-84
2023/03/22 12:13:53;;;;;;;10.98;4.57;;;13.00;99.90;;;;;;4996399;28;20639;-85
2023/03/22 12:16:28;;;;;;;14.07;5.25;;;13.20;99.90;;;;;;4995826;28;20598;-85
2023/03/22 12:19:06;;;;;;;10.25;4.72;;;13.50;99.90;;;;;;4995342;28;20188;-85
2023/03/22 12:21:32;;;;;;;10.68;4.90;;;13.60;99.90;;;;;;4995531;28;20253;-84
2023/03/22 12:24:01;;;;;;;9.70;4.60;;;13.30;99.90;;;;;;4995624;28;20521;-85
2023/03/22 12:26:29;;;;;;;16.20;5.75;;;13.40;99.90;;;;;;4997189;28;20174;-86
2023/03/22 12:29:00;;;;;;;9.77;4.95;;;13.50;99.90;;;;;;4995575;28;20221;-85
2023/03/22 12:31:35;;;;;;;16.17;4.80;;;13.60;99.90;;;;;;4996305;28;20185;-83
2023/03/22 12:34:20;;;;;;;11.60;4.90;;;13.60;99.90;;;;;;4994667;28;20174;-84
2023/03/22 12:36:54;;;;;;;10.10;5.13;;;14.00;99.90;;;;;;4996835;28;20277;-84
2023/03/22 12:39:53;;;;;;;9.93;4.63;;;14.00;99.90;;;;;;4996397;28;20163;-83
2023/03/22 12:42:24;;;;;;;15.75;5.55;;;13.70;99.90;;;;;;4982622;28;20272;-83
2023/03/22 12:44:53;;;;;;;10.68;5.35;;;13.70;99.90;;;;;;4997072;28;20219;-83
2023/03/22 12:47:28;;;;;;;12.27;4.90;;;13.90;99.90;;;;;;4995113;28;20174;-85
2023/03/22 12:50:10;;;;;;;13.18;4.35;;;13.80;99.90;;;;;;4997450;28;20170;-83
2023/03/22 12:52:48;;;;;;;10.45;5.07;;;13.30;99.90;;;;;;4996891;28;20177;-84
2023/03/22 12:55:20;;;;;;;11.32;5.38;;;12.90;99.90;;;;;;4995908;28;20686;-83
2023/03/22 12:57:50;;;;;;;11.98;5.05;;;12.80;99.90;;;;;;4994455;28;20182;-83
2023/03/22 13:00:16;;;;;;;10.57;5.20;;;12.90;99.90;;;;;;4962862;28;20269;-84
2023/03/22 13:02:52;;;;;;;12.23;5.68;;;12.80;99.90;;;;;;4994537;28;20190;-83
2023/03/22 13:05:18;;;;;;;12.63;5.43;;;12.40;99.90;;;;;;4995835;28;20162;-83
2023/03/22 13:07:46;;;;;;;11.95;5.78;;;12.40;99.90;;;;;;4963116;28;20669;-83